createdAt,value
2022-08-28T00:00:39.075Z,16.1
2022-08-28T00:04:37.238Z,9.5
2022-08-28T00:05:39.824Z,14.2
2022-08-28T00:06:36.639Z,9.6
2022-08-28T00:07:37.496Z,10.0
2022-08-28T00:08:37.458Z,8.4
2022-08-28T00:09:36.803Z,8.5
2022-08-28T00:10:39.898Z,9.4
2022-08-28T00:11:37.758Z,7.7
2022-08-28T00:12:37.710Z,5.3
2022-08-28T00:13:38.081Z,19.9
2022-08-28T00:14:37.264Z,20.0
2022-08-28T00:15:39.258Z,18.3
2022-08-28T00:17:36.932Z,8.4
2022-08-28T00:18:36.856Z,6.7
2022-08-28T00:19:38.614Z,8.9
2022-08-28T00:20:37.838Z,11.2
2022-08-28T00:21:37.356Z,13.1
2022-08-28T00:22:38.636Z,11.8
2022-08-28T00:23:42.762Z,10.7
2022-08-28T00:24:37.107Z,9.9
2022-08-28T00:25:37.104Z,6.8
2022-08-28T00:26:46.026Z,7.3
2022-08-28T00:27:46.895Z,6.3
2022-08-28T00:28:36.618Z,5.2
2022-08-28T00:29:37.135Z,4.0
2022-08-28T00:30:41.457Z,3.3
2022-08-28T00:31:41.033Z,1.8
2022-08-28T00:32:36.596Z,2.3
2022-08-28T00:34:36.977Z,2.2
2022-08-28T00:36:37.128Z,1.9
2022-08-28T00:37:36.673Z,1.9
2022-08-28T00:38:36.595Z,3.9
2022-08-28T00:39:36.722Z,1.1
2022-08-28T00:43:41.830Z,5.7
2022-08-28T00:44:37.026Z,8.4
2022-08-28T00:45:39.863Z,6.5
2022-08-28T00:46:38.552Z,5.9
2022-08-28T00:48:37.196Z,7.5
2022-08-28T00:49:46.782Z,7.5
2022-08-28T00:50:47.022Z,7.8
2022-08-28T00:52:37.652Z,10.2
2022-08-28T00:53:36.675Z,15.4
2022-08-28T00:54:42.376Z,14.0
2022-08-28T00:55:36.622Z,11.0
2022-08-28T00:56:39.300Z,8.3
2022-08-28T00:57:41.692Z,7.6
2022-08-28T00:58:36.744Z,6.0
2022-08-28T00:59:36.590Z,2.2
2022-08-28T01:00:40.582Z,3.0
2022-08-28T01:01:38.929Z,2.0
2022-08-28T01:02:36.698Z,1.5
2022-08-28T01:03:37.476Z,1.7
2022-08-28T01:04:37.813Z,2.9
2022-08-28T01:05:37.995Z,3.3
2022-08-28T01:06:37.729Z,1.9
2022-08-28T01:08:39.661Z,2.3
2022-08-28T01:09:40.198Z,2.4
2022-08-28T01:10:36.707Z,3.6
2022-08-28T01:11:36.811Z,2.3
2022-08-28T01:12:37.420Z,2.0
2022-08-28T01:13:40.413Z,2.4
2022-08-28T01:14:39.252Z,6.2
2022-08-28T01:15:39.106Z,4.7
2022-08-28T01:16:37.468Z,2.4
2022-08-28T01:17:37.292Z,1.7
2022-08-28T01:18:36.741Z,2.2
2022-08-28T01:19:41.687Z,3.9
2022-08-28T01:20:42.773Z,5.7
2022-08-28T01:21:50.665Z,3.3
2022-08-28T01:23:54.628Z,4.2
2022-08-28T01:24:38.273Z,2.4
2022-08-28T01:25:38.485Z,5.3
2022-08-28T01:26:38.551Z,1.5
2022-08-28T01:29:36.782Z,4.5
2022-08-28T01:30:36.675Z,3.5
2022-08-28T01:31:38.713Z,3.2
2022-08-28T01:32:40.061Z,2.8
2022-08-28T01:33:36.588Z,2.2
2022-08-28T01:35:39.905Z,2.3
2022-08-28T01:36:37.046Z,2.2
2022-08-28T01:38:37.210Z,3.8
2022-08-28T01:39:36.628Z,3.1
2022-08-28T01:40:40.151Z,2.4
2022-08-28T01:41:40.861Z,2.3
2022-08-28T01:42:40.521Z,2.1
2022-08-28T01:43:36.747Z,2.6
2022-08-28T01:44:36.793Z,2.0
2022-08-28T01:45:37.902Z,1.7
2022-08-28T01:46:37.276Z,2.5
2022-08-28T01:47:36.556Z,3.0
2022-08-28T01:48:39.576Z,11.5
2022-08-28T01:50:36.759Z,1.9
2022-08-28T01:51:38.050Z,2.8
2022-08-28T01:52:36.796Z,2.3
2022-08-28T01:53:36.909Z,2.1
2022-08-28T01:54:37.342Z,2.1
2022-08-28T01:55:37.478Z,3.3
2022-08-28T01:56:36.870Z,1.7
2022-08-28T01:57:42.784Z,1.4
2022-08-28T01:58:38.456Z,3.1
2022-08-28T01:59:36.705Z,2.7
2022-08-28T02:00:36.706Z,2.4
2022-08-28T02:01:36.934Z,1.5
2022-08-28T02:02:36.612Z,1.8
2022-08-28T02:03:36.529Z,2.2
2022-08-28T02:04:36.730Z,2.8
2022-08-28T02:05:37.263Z,2.8
2022-08-28T02:06:38.099Z,2.3
2022-08-28T02:07:37.742Z,3.4
2022-08-28T02:08:37.134Z,2.6
2022-08-28T02:09:36.724Z,1.5
2022-08-28T02:10:39.535Z,1.9
2022-08-28T02:11:37.230Z,1.4
2022-08-28T02:12:36.661Z,2.5
2022-08-28T02:13:37.738Z,2.1
2022-08-28T02:14:36.629Z,2.9
2022-08-28T02:15:37.996Z,1.8
2022-08-28T02:16:36.532Z,1.5
2022-08-28T02:17:36.588Z,1.2
2022-08-28T02:18:37.918Z,2.8
2022-08-28T02:19:36.917Z,0.6
2022-08-28T02:20:36.794Z,0.9
2022-08-28T02:21:36.614Z,0.9
2022-08-28T02:22:36.703Z,2.1
2022-08-28T02:23:38.363Z,1.8
2022-08-28T02:24:37.330Z,2.3
2022-08-28T02:26:37.024Z,4.1
2022-08-28T02:27:38.602Z,1.5
2022-08-28T02:28:37.606Z,1.3
2022-08-28T02:29:36.501Z,1.2
2022-08-28T02:30:37.603Z,1.1
2022-08-28T02:31:36.552Z,1.8
2022-08-28T02:32:37.136Z,2.5
2022-08-28T02:33:40.328Z,1.0
2022-08-28T02:34:37.431Z,0.8
2022-08-28T02:35:36.609Z,1.2
2022-08-28T02:39:37.321Z,1.9
2022-08-28T02:40:37.408Z,0.9
2022-08-28T02:41:36.900Z,1.0
2022-08-28T02:42:36.591Z,1.5
2022-08-28T02:43:37.100Z,1.0
2022-08-28T02:44:36.865Z,1.5
2022-08-28T02:46:36.610Z,1.7
2022-08-28T02:47:36.518Z,0.7
2022-08-28T02:48:38.567Z,1.3
2022-08-28T02:49:36.592Z,0.7
2022-08-28T02:50:36.561Z,1.4
2022-08-28T02:51:36.534Z,2.1
2022-08-28T02:52:37.653Z,2.0
2022-08-28T02:53:37.230Z,1.3
2022-08-28T02:54:39.955Z,2.8
2022-08-28T02:55:36.508Z,0.8
2022-08-28T02:56:36.800Z,1.7
2022-08-28T02:57:36.631Z,0.9
2022-08-28T02:58:37.014Z,1.5
2022-08-28T02:59:36.967Z,1.3
2022-08-28T03:00:37.068Z,1.1
2022-08-28T03:01:36.688Z,2.4
2022-08-28T03:02:36.968Z,1.1
2022-08-28T03:03:36.664Z,0.8
2022-08-28T03:04:37.908Z,2.9
2022-08-28T03:05:36.537Z,1.0
2022-08-28T03:06:36.535Z,0.4
2022-08-28T03:07:37.504Z,1.7
2022-08-28T03:08:36.805Z,1.2
2022-08-28T03:09:36.582Z,1.4
2022-08-28T03:10:36.565Z,0.9
2022-08-28T03:11:37.151Z,1.1
2022-08-28T03:12:36.893Z,0.3
2022-08-28T03:13:36.805Z,1.7
2022-08-28T03:14:36.500Z,0.9
2022-08-28T03:15:36.881Z,1.3
2022-08-28T03:16:36.637Z,0.6
2022-08-28T03:17:37.071Z,1.0
2022-08-28T03:18:36.678Z,1.1
2022-08-28T03:19:36.613Z,2.0
2022-08-28T03:21:36.453Z,0.5
2022-08-28T03:22:46.210Z,1.5
2022-08-28T03:23:37.575Z,2.1
2022-08-28T03:24:37.681Z,3.4
2022-08-28T03:25:36.669Z,5.3
2022-08-28T03:26:36.664Z,3.5
2022-08-28T03:27:36.566Z,3.0
2022-08-28T03:28:39.676Z,4.4
2022-08-28T03:29:36.927Z,3.7
2022-08-28T03:30:36.656Z,1.9
2022-08-28T03:31:36.590Z,1.9
2022-08-28T03:32:36.721Z,1.7
2022-08-28T03:33:37.388Z,1.2
2022-08-28T03:34:36.497Z,2.0
2022-08-28T03:35:37.739Z,1.0
2022-08-28T03:36:36.846Z,1.6
2022-08-28T03:37:36.645Z,1.0
2022-08-28T03:38:36.633Z,0.5
2022-08-28T03:39:36.496Z,0.6
2022-08-28T03:40:40.793Z,1.3
2022-08-28T03:41:37.050Z,0.6
2022-08-28T03:42:36.989Z,1.1
2022-08-28T03:43:36.589Z,0.6
2022-08-28T03:45:36.485Z,0.6
2022-08-28T03:47:38.820Z,0.8
2022-08-28T03:48:38.472Z,1.2
2022-08-28T03:49:36.457Z,1.1
2022-08-28T03:51:36.547Z,0.9
2022-08-28T03:52:36.479Z,1.4
2022-08-28T03:53:37.403Z,0.7
2022-08-28T03:54:36.832Z,0.3
2022-08-28T03:55:36.544Z,1.0
2022-08-28T03:56:36.511Z,0.8
2022-08-28T03:57:37.480Z,2.0
2022-08-28T03:58:36.649Z,1.8
2022-08-28T03:59:37.126Z,0.5
2022-08-28T04:00:36.675Z,1.3
2022-08-28T04:01:38.434Z,1.4
2022-08-28T04:02:36.525Z,1.6
2022-08-28T04:03:37.007Z,0.9
2022-08-28T04:04:36.469Z,2.6
2022-08-28T04:05:36.536Z,1.2
2022-08-28T04:06:36.549Z,0.6
2022-08-28T04:07:38.283Z,0.7
2022-08-28T04:08:36.864Z,0.8
2022-08-28T04:09:36.425Z,0.7
2022-08-28T04:12:37.265Z,0.3
2022-08-28T04:13:36.572Z,1.3
2022-08-28T04:14:36.954Z,0.7
2022-08-28T04:15:36.554Z,0.8
2022-08-28T04:18:36.858Z,1.2
2022-08-28T04:19:36.627Z,1.1
2022-08-28T04:21:36.488Z,2.0
2022-08-28T04:22:37.362Z,0.9
2022-08-28T04:23:38.309Z,1.5
2022-08-28T04:24:36.527Z,0.9
2022-08-28T04:25:36.978Z,1.2
2022-08-28T04:26:36.994Z,0.6
2022-08-28T04:27:36.886Z,1.1
2022-08-28T04:28:36.894Z,0.8
2022-08-28T04:29:36.568Z,2.5
2022-08-28T04:31:36.877Z,1.8
2022-08-28T04:32:37.155Z,0.7
2022-08-28T04:33:37.679Z,2.1
2022-08-28T04:34:38.759Z,3.9
2022-08-28T04:35:36.428Z,0.8
2022-08-28T04:36:36.918Z,1.2
2022-08-28T04:37:36.716Z,0.8
2022-08-28T04:38:40.363Z,1.2
2022-08-28T04:39:36.593Z,1.9
2022-08-28T04:40:40.772Z,0.6
2022-08-28T04:41:37.698Z,1.2
2022-08-28T04:42:37.170Z,0.4
2022-08-28T04:43:36.821Z,1.4
2022-08-28T04:44:36.610Z,1.3
2022-08-28T04:45:41.556Z,2.0
2022-08-28T04:46:37.436Z,0.7
2022-08-28T04:47:38.634Z,0.4
2022-08-28T04:48:37.212Z,1.4
2022-08-28T04:49:37.310Z,1.5
2022-08-28T04:50:40.961Z,1.7
2022-08-28T04:51:40.103Z,1.6
2022-08-28T04:52:36.749Z,1.3
2022-08-28T04:54:37.175Z,0.6
2022-08-28T04:55:53.352Z,0.5
2022-08-28T04:56:36.623Z,1.1
2022-08-28T04:57:36.685Z,0.3
2022-08-28T04:58:37.658Z,2.8
2022-08-28T04:59:37.792Z,1.6
2022-08-28T05:00:38.726Z,1.3
2022-08-28T05:01:36.741Z,1.0
2022-08-28T05:02:37.293Z,2.2
2022-08-28T05:03:36.469Z,0.6
2022-08-28T05:04:36.511Z,1.7
2022-08-28T05:05:51.367Z,1.2
2022-08-28T05:06:36.456Z,0.7
2022-08-28T05:07:37.507Z,0.8
2022-08-28T05:08:36.750Z,1.1
2022-08-28T05:09:36.458Z,1.1
2022-08-28T05:10:36.411Z,0.7
2022-08-28T05:11:36.510Z,1.0
2022-08-28T05:12:37.388Z,1.0
2022-08-28T05:13:36.385Z,1.0
2022-08-28T05:14:37.021Z,0.7
2022-08-28T05:15:41.373Z,0.7
2022-08-28T05:16:44.889Z,1.1
2022-08-28T05:17:36.417Z,1.4
2022-08-28T05:18:36.830Z,1.3
2022-08-28T05:19:36.399Z,1.3
2022-08-28T05:20:38.231Z,0.7
2022-08-28T05:21:36.695Z,1.7
2022-08-28T05:22:36.479Z,0.9
2022-08-28T05:23:36.401Z,1.3
2022-08-28T05:24:38.077Z,2.1
2022-08-28T05:25:38.376Z,2.3
2022-08-28T05:26:40.000Z,3.0
2022-08-28T05:27:38.350Z,2.8
2022-08-28T05:28:36.400Z,2.8
2022-08-28T05:30:37.490Z,1.8
2022-08-28T05:31:38.003Z,1.8
2022-08-28T05:32:36.408Z,1.8
2022-08-28T05:33:36.411Z,2.1
2022-08-28T05:34:36.497Z,1.9
2022-08-28T05:35:38.790Z,2.5
2022-08-28T05:36:37.923Z,2.0
2022-08-28T05:37:36.391Z,2.0
2022-08-28T05:38:36.912Z,2.4
2022-08-28T05:39:36.505Z,1.4
2022-08-28T05:40:43.107Z,2.0
2022-08-28T05:41:37.276Z,2.0
2022-08-28T05:42:39.026Z,1.9
2022-08-28T05:43:37.599Z,1.7
2022-08-28T05:44:36.418Z,1.3
2022-08-28T05:45:36.491Z,2.0
2022-08-28T05:46:38.410Z,1.6
2022-08-28T05:47:36.427Z,1.5
2022-08-28T05:48:39.445Z,2.7
2022-08-28T05:49:36.381Z,3.2
2022-08-28T05:50:39.359Z,1.4
2022-08-28T05:51:37.558Z,1.4
2022-08-28T05:52:37.013Z,1.8
2022-08-28T05:53:38.857Z,2.8
2022-08-28T05:54:36.465Z,4.3
2022-08-28T05:55:40.061Z,3.9
2022-08-28T05:56:38.706Z,3.9
2022-08-28T05:57:36.439Z,0.7
2022-08-28T05:58:37.866Z,2.1
2022-08-28T05:59:36.381Z,2.5
2022-08-28T06:00:36.366Z,2.6
2022-08-28T06:01:40.653Z,3.7
2022-08-28T06:02:36.366Z,3.7
2022-08-28T06:03:37.846Z,2.8
2022-08-28T06:04:37.562Z,2.5
2022-08-28T06:05:36.332Z,2.3
2022-08-28T06:06:39.422Z,4.7
2022-08-28T06:07:37.538Z,1.8
2022-08-28T06:08:37.597Z,3.1
2022-08-28T06:09:38.465Z,2.5
2022-08-28T06:10:37.354Z,3.5
2022-08-28T06:11:38.997Z,1.9
2022-08-28T06:12:36.358Z,3.1
2022-08-28T06:13:36.617Z,3.0
2022-08-28T06:14:37.120Z,2.7
2022-08-28T06:15:43.957Z,4.1
2022-08-28T06:16:39.063Z,4.1
2022-08-28T06:17:38.066Z,6.2
2022-08-28T06:18:36.373Z,7.2
2022-08-28T06:19:41.246Z,6.3
2022-08-28T06:20:41.598Z,5.8
2022-08-28T06:21:37.592Z,6.6
2022-08-28T06:22:36.480Z,5.8
2022-08-28T06:23:36.424Z,9.0
2022-08-28T06:24:36.795Z,7.5
2022-08-28T06:25:39.645Z,5.4
2022-08-28T06:26:36.510Z,6.8
2022-08-28T06:27:39.414Z,6.5
2022-08-28T06:28:36.362Z,6.2
2022-08-28T06:29:36.703Z,9.3
2022-08-28T06:30:40.129Z,8.2
2022-08-28T06:31:36.488Z,5.7
2022-08-28T06:32:36.316Z,6.9
2022-08-28T06:33:36.435Z,7.0
2022-08-28T06:35:41.996Z,7.7
2022-08-28T06:36:40.106Z,7.3
2022-08-28T06:37:36.401Z,4.9
2022-08-28T06:39:36.364Z,4.8
2022-08-28T06:40:42.527Z,5.2
2022-08-28T06:41:41.215Z,5.4
2022-08-28T06:42:36.339Z,8.5
2022-08-28T06:43:36.843Z,5.8
2022-08-28T06:44:39.384Z,4.3
2022-08-28T06:45:41.186Z,4.3
2022-08-28T06:46:36.734Z,3.2
2022-08-28T06:47:36.401Z,5.6
2022-08-28T06:48:36.506Z,5.1
2022-08-28T06:49:36.326Z,6.0
2022-08-28T06:51:36.952Z,4.3
2022-08-28T06:53:36.566Z,8.2
2022-08-28T06:54:36.338Z,2.7
2022-08-28T06:57:36.523Z,6.8
2022-08-28T06:58:38.048Z,4.1
2022-08-28T06:59:36.390Z,3.3
2022-08-28T07:00:37.638Z,6.8
2022-08-28T07:01:38.378Z,4.6
2022-08-28T07:02:36.360Z,6.1
2022-08-28T07:03:36.368Z,4.0
2022-08-28T07:04:38.243Z,6.0
2022-08-28T07:05:36.410Z,4.2
2022-08-28T07:06:39.141Z,5.5
2022-08-28T07:07:37.065Z,5.3
2022-08-28T07:08:37.552Z,6.4
2022-08-28T07:13:36.785Z,6.6
2022-08-28T07:14:38.268Z,4.4
2022-08-28T07:15:36.553Z,7.1
2022-08-28T07:17:36.401Z,4.9
2022-08-28T07:18:37.286Z,4.9
2022-08-28T07:19:36.297Z,4.5
2022-08-28T07:21:40.308Z,5.2
2022-08-28T07:22:36.306Z,6.3
2022-08-28T07:23:38.009Z,6.6
2022-08-28T07:24:36.357Z,4.1
2022-08-28T07:25:41.727Z,4.8
2022-08-28T07:26:36.932Z,7.1
2022-08-28T07:28:37.828Z,5.8
2022-08-28T07:29:36.291Z,9.4
2022-08-28T07:30:36.710Z,7.4
2022-08-28T07:31:37.949Z,8.1
2022-08-28T07:32:36.382Z,4.7
2022-08-28T07:35:36.321Z,6.0
2022-08-28T07:36:36.372Z,8.8
2022-08-28T07:37:36.290Z,5.0
2022-08-28T07:38:36.734Z,7.2
2022-08-28T07:39:37.294Z,4.8
2022-08-28T07:41:39.493Z,4.6
2022-08-28T07:42:46.103Z,5.0
2022-08-28T07:43:45.664Z,7.6
2022-08-28T07:44:45.589Z,5.6
2022-08-28T07:45:36.438Z,6.0
2022-08-28T07:46:37.621Z,6.9
2022-08-28T07:47:38.825Z,7.7
2022-08-28T07:48:37.466Z,6.5
2022-08-28T07:49:36.588Z,6.2
2022-08-28T07:50:37.707Z,9.6
2022-08-28T07:51:37.277Z,6.2
2022-08-28T07:52:37.548Z,6.6
2022-08-28T07:53:37.654Z,6.0
2022-08-28T07:54:37.542Z,6.5
2022-08-28T07:55:36.290Z,6.7
2022-08-28T07:56:40.924Z,4.5
2022-08-28T07:57:36.650Z,4.4
2022-08-28T07:58:36.368Z,5.7
2022-08-28T07:59:37.558Z,4.6
2022-08-28T08:00:36.523Z,5.4
2022-08-28T08:01:40.800Z,6.3
2022-08-28T08:02:36.298Z,5.6
2022-08-28T08:03:36.421Z,7.6
2022-08-28T08:04:36.360Z,5.0
2022-08-28T08:05:36.384Z,8.5
2022-08-28T08:06:37.823Z,5.8
2022-08-28T08:07:41.929Z,4.6
2022-08-28T08:08:36.731Z,4.8
2022-08-28T08:09:40.901Z,6.0
2022-08-28T08:10:36.738Z,6.5
2022-08-28T08:11:36.681Z,3.3
2022-08-28T08:12:36.327Z,7.1
2022-08-28T08:13:38.269Z,6.8
2022-08-28T08:14:37.321Z,4.9
2022-08-28T08:15:36.349Z,5.9
2022-08-28T08:16:39.339Z,5.6
2022-08-28T08:17:36.347Z,4.6
2022-08-28T08:18:36.687Z,3.7
2022-08-28T08:19:37.015Z,6.7
2022-08-28T08:20:36.278Z,3.8
2022-08-28T08:21:36.783Z,4.6
2022-08-28T08:23:38.928Z,6.8
2022-08-28T08:27:39.879Z,8.3
2022-08-28T08:28:37.937Z,6.0
2022-08-28T08:29:38.658Z,4.1
2022-08-28T08:31:36.368Z,6.4
2022-08-28T08:33:38.536Z,5.8
2022-08-28T08:35:36.703Z,5.2
2022-08-28T08:36:39.137Z,4.6
2022-08-28T08:37:36.270Z,6.5
2022-08-28T08:38:37.019Z,5.1
2022-08-28T08:39:37.681Z,6.3
2022-08-28T08:40:36.398Z,5.6
2022-08-28T08:41:48.490Z,3.8
2022-08-28T08:42:38.675Z,6.6
2022-08-28T08:43:54.671Z,6.0
2022-08-28T08:44:40.949Z,4.2
2022-08-28T08:45:38.693Z,7.2
2022-08-28T08:46:48.227Z,6.2
2022-08-28T08:47:43.514Z,8.6
2022-08-28T08:48:38.308Z,4.0
2022-08-28T08:49:40.252Z,3.9
2022-08-28T08:55:43.279Z,5.8
2022-08-28T08:56:36.857Z,3.7
2022-08-28T08:57:39.215Z,4.0
2022-08-28T08:58:41.618Z,4.3
2022-08-28T09:00:48.995Z,8.4
2022-08-28T09:01:44.758Z,4.6
2022-08-28T09:02:44.140Z,5.6
2022-08-28T09:03:45.969Z,6.7
2022-08-28T09:05:43.065Z,8.6
2022-08-28T09:06:44.674Z,5.8
2022-08-28T09:07:42.414Z,5.3
2022-08-28T09:09:41.015Z,6.3
2022-08-28T09:11:44.958Z,4.9
2022-08-28T09:12:55.359Z,6.1
2022-08-28T09:13:48.929Z,6.0
2022-08-28T09:14:48.564Z,4.4
2022-08-28T09:15:42.551Z,4.4
2022-08-28T09:16:40.891Z,6.5
2022-08-28T09:17:43.186Z,6.7
2022-08-28T09:18:36.761Z,6.4
2022-08-28T09:19:36.631Z,6.4
2022-08-28T09:20:36.281Z,6.9
2022-08-28T09:21:41.785Z,4.5
2022-08-28T09:22:37.466Z,6.4
2022-08-28T09:23:36.350Z,6.0
2022-08-28T09:24:37.838Z,8.1
2022-08-28T09:25:45.874Z,4.2
2022-08-28T09:26:36.347Z,7.6
2022-08-28T09:27:39.291Z,6.4
2022-08-28T09:28:40.963Z,6.5
2022-08-28T09:29:39.129Z,3.8
2022-08-28T09:30:38.112Z,5.0
2022-08-28T09:31:41.260Z,6.2
2022-08-28T09:32:44.399Z,7.4
2022-08-28T09:33:48.080Z,6.7
2022-08-28T09:34:38.937Z,6.8
2022-08-28T09:35:38.181Z,5.7
2022-08-28T09:36:38.068Z,5.0
2022-08-28T09:37:37.629Z,4.9
2022-08-28T09:38:36.876Z,3.6
2022-08-28T09:39:36.272Z,3.2
2022-08-28T09:40:45.796Z,4.8
2022-08-28T09:41:55.841Z,7.5
2022-08-28T09:42:45.637Z,5.7
2022-08-28T09:43:37.933Z,7.5
2022-08-28T09:44:52.290Z,8.7
2022-08-28T09:46:39.273Z,8.7
2022-08-28T09:47:46.464Z,5.9
2022-08-28T09:50:36.831Z,10.8
2022-08-28T09:51:38.896Z,7.9
2022-08-28T09:53:41.821Z,7.5
2022-08-28T09:56:40.330Z,6.4
2022-08-28T09:59:36.290Z,4.3
2022-08-28T10:00:41.762Z,2.8
2022-08-28T10:01:44.660Z,3.1
2022-08-28T10:02:46.719Z,5.2
2022-08-28T10:04:52.063Z,3.5
2022-08-28T10:05:47.694Z,3.3
2022-08-28T10:06:38.115Z,3.3
2022-08-28T10:07:43.007Z,3.6
2022-08-28T10:08:45.826Z,3.8
2022-08-28T10:09:40.448Z,3.8
2022-08-28T10:10:46.110Z,3.2
2022-08-28T10:11:48.821Z,2.2
2022-08-28T10:13:47.944Z,3.6
2022-08-28T10:14:54.123Z,3.4
2022-08-28T10:15:43.574Z,2.5
2022-08-28T10:16:52.806Z,2.9
2022-08-28T10:18:41.078Z,3.6
2022-08-28T10:19:47.988Z,1.6
2022-08-28T10:20:46.424Z,3.0
2022-08-28T10:21:49.886Z,2.3
2022-08-28T10:22:40.993Z,2.7
2022-08-28T10:23:48.820Z,3.2
2022-08-28T10:24:54.178Z,2.9
2022-08-28T10:25:39.751Z,1.8
2022-08-28T10:26:45.594Z,4.6
2022-08-28T10:27:45.873Z,5.3
2022-08-28T10:28:43.998Z,5.1
2022-08-28T10:29:49.719Z,3.3
2022-08-28T10:30:47.522Z,3.4
2022-08-28T10:31:53.134Z,4.3
2022-08-28T10:32:52.815Z,4.4
2022-08-28T10:33:45.805Z,4.2
2022-08-28T10:34:51.953Z,4.2
2022-08-28T10:35:49.437Z,3.4
2022-08-28T10:36:36.657Z,3.5
2022-08-28T10:37:51.518Z,3.8
2022-08-28T10:38:41.207Z,4.3
2022-08-28T10:39:51.562Z,2.9
2022-08-28T10:40:40.977Z,2.0
2022-08-28T10:41:44.290Z,3.0
2022-08-28T10:42:40.544Z,4.7
2022-08-28T10:43:44.950Z,2.8
2022-08-28T10:44:48.210Z,2.7
2022-08-28T10:45:38.251Z,3.7
2022-08-28T10:46:44.994Z,2.9
2022-08-28T10:47:40.412Z,3.0
2022-08-28T10:49:41.748Z,4.5
2022-08-28T10:51:47.098Z,4.6
2022-08-28T10:52:42.793Z,3.1
2022-08-28T10:53:43.027Z,2.7
2022-08-28T10:54:41.020Z,3.4
2022-08-28T10:55:47.354Z,5.4
2022-08-28T10:56:41.344Z,6.9
2022-08-28T10:57:42.787Z,5.2
2022-08-28T10:58:41.056Z,3.9
2022-08-28T11:00:38.045Z,3.8
2022-08-28T11:02:37.902Z,4.2
2022-08-28T11:04:36.488Z,2.9
2022-08-28T11:05:41.425Z,5.7
2022-08-28T11:06:38.479Z,5.2
2022-08-28T11:07:42.716Z,4.8
2022-08-28T11:08:39.697Z,7.1
2022-08-28T11:09:41.494Z,6.6
2022-08-28T11:10:47.445Z,4.4
2022-08-28T11:12:42.970Z,7.0
2022-08-28T11:13:45.183Z,7.1
2022-08-28T11:14:47.644Z,6.0
2022-08-28T11:15:48.545Z,6.3
2022-08-28T11:19:52.462Z,11.3
2022-08-28T11:21:45.478Z,12.1
2022-08-28T11:25:50.439Z,8.6
2022-08-28T11:28:47.593Z,9.2
2022-08-28T11:29:55.667Z,7.3
2022-08-28T11:30:36.774Z,13.3
2022-08-28T11:31:40.245Z,11.2
2022-08-28T11:32:49.351Z,10.3
2022-08-28T11:33:47.909Z,11.1
2022-08-28T11:34:54.141Z,12.7
2022-08-28T11:35:39.359Z,13.1
2022-08-28T11:36:44.761Z,12.8
2022-08-28T11:37:42.551Z,16.4
2022-08-28T11:38:44.779Z,12.2
2022-08-28T11:39:36.160Z,10.6
2022-08-28T11:40:54.746Z,9.2
2022-08-28T11:41:39.199Z,9.1
2022-08-28T11:42:38.805Z,6.7
2022-08-28T11:43:37.993Z,7.8
2022-08-28T11:44:43.413Z,10.9
2022-08-28T11:45:47.210Z,8.2
2022-08-28T11:46:37.590Z,7.6
2022-08-28T11:47:46.923Z,7.6
2022-08-28T11:48:48.271Z,8.4
2022-08-28T11:49:43.168Z,10.1
2022-08-28T11:50:54.189Z,8.3
2022-08-28T11:51:53.627Z,8.8
2022-08-28T11:52:54.075Z,8.8
2022-08-28T11:53:53.963Z,7.5
2022-08-28T11:54:54.447Z,10.4
2022-08-28T11:55:50.941Z,23.5
2022-08-28T11:56:48.753Z,10.1
2022-08-28T11:57:54.130Z,12.3
2022-08-28T11:58:39.536Z,11.0
2022-08-28T11:59:51.401Z,9.3
2022-08-28T12:00:54.181Z,10.7
2022-08-28T12:01:37.288Z,12.2
2022-08-28T12:02:44.861Z,9.5
2022-08-28T12:04:45.130Z,8.2
2022-08-28T12:08:47.046Z,7.0
2022-08-28T12:09:41.390Z,5.3
2022-08-28T12:10:53.960Z,5.8
2022-08-28T12:11:45.068Z,5.9
2022-08-28T12:12:46.225Z,6.3
2022-08-28T12:13:48.840Z,5.1
2022-08-28T12:14:45.770Z,10.3
2022-08-28T12:15:41.935Z,12.6
2022-08-28T12:16:54.096Z,13.8
2022-08-28T12:17:46.695Z,17.6
2022-08-28T12:18:48.691Z,10.9
2022-08-28T12:19:52.553Z,12.9
2022-08-28T12:20:40.352Z,10.0
2022-08-28T12:21:41.179Z,11.2
2022-08-28T12:22:51.219Z,12.0
2022-08-28T12:23:45.145Z,14.6
2022-08-28T12:24:37.576Z,14.2
2022-08-28T12:25:39.636Z,11.0
2022-08-28T12:26:40.032Z,18.8
2022-08-28T12:27:41.274Z,19.9
2022-08-28T12:28:49.963Z,29.2
2022-08-28T12:29:44.252Z,28.3
2022-08-28T12:30:48.462Z,24.0
2022-08-28T12:31:54.036Z,22.2
2022-08-28T12:32:50.311Z,24.1
2022-08-28T12:34:45.907Z,28.7
2022-08-28T12:36:36.155Z,17.4
2022-08-28T12:38:36.466Z,19.8
2022-08-28T12:43:46.600Z,11.2
2022-08-28T12:44:36.124Z,10.3
2022-08-28T12:45:41.115Z,8.5
2022-08-28T12:46:41.528Z,7.7
2022-08-28T12:48:53.432Z,4.9
2022-08-28T12:49:38.359Z,5.3
2022-08-28T12:50:38.772Z,4.7
2022-08-28T12:51:38.650Z,6.1
2022-08-28T12:52:36.037Z,4.3
2022-08-28T12:53:44.739Z,3.2
2022-08-28T12:54:36.151Z,5.8
2022-08-28T12:55:38.058Z,4.7
2022-08-28T12:56:38.329Z,2.7
2022-08-28T12:57:36.121Z,3.6
2022-08-28T12:58:39.597Z,4.1
2022-08-28T12:59:37.975Z,4.8
2022-08-28T13:00:37.218Z,4.4
2022-08-28T13:01:36.288Z,3.9
2022-08-28T13:02:36.399Z,5.3
2022-08-28T13:03:44.212Z,5.5
2022-08-28T13:04:40.897Z,4.2
2022-08-28T13:07:41.130Z,3.7
2022-08-28T13:08:38.396Z,5.1
2022-08-28T13:09:36.276Z,4.8
2022-08-28T13:10:41.966Z,2.9
2022-08-28T13:11:38.861Z,3.0
2022-08-28T13:12:54.487Z,3.3
2022-08-28T13:13:40.281Z,5.7
2022-08-28T13:14:40.606Z,2.4
2022-08-28T13:15:46.844Z,4.7
2022-08-28T13:18:56.544Z,4.5
2022-08-28T13:21:46.499Z,3.5
2022-08-28T13:22:41.920Z,3.8
2022-08-28T13:23:36.016Z,3.7
2022-08-28T13:24:43.996Z,3.1
2022-08-28T13:25:38.297Z,2.7
2022-08-28T13:28:40.972Z,5.0
2022-08-28T13:29:37.604Z,4.4
2022-08-28T13:30:36.860Z,5.1
2022-08-28T13:31:38.950Z,4.0
2022-08-28T13:32:39.348Z,5.0
2022-08-28T13:34:38.710Z,3.4
2022-08-28T13:36:44.542Z,3.4
2022-08-28T13:38:36.205Z,2.9
2022-08-28T13:39:37.998Z,1.8
2022-08-28T13:40:57.039Z,3.6
2022-08-28T13:41:36.508Z,3.0
2022-08-28T13:42:36.128Z,2.3
2022-08-28T13:43:46.513Z,7.5
2022-08-28T13:44:38.594Z,10.9
2022-08-28T13:45:42.668Z,8.9
2022-08-28T13:46:36.468Z,8.7
2022-08-28T13:47:36.068Z,6.3
2022-08-28T13:48:36.002Z,6.1
2022-08-28T13:49:37.045Z,10.6
2022-08-28T13:50:38.973Z,14.6
2022-08-28T13:51:39.482Z,14.9
2022-08-28T13:52:36.284Z,16.1
2022-08-28T13:53:35.978Z,18.3
2022-08-28T13:54:36.616Z,16.2
2022-08-28T13:55:36.101Z,17.0
2022-08-28T13:56:36.159Z,16.7
2022-08-28T13:57:36.428Z,25.1
2022-08-28T13:58:36.071Z,25.1
2022-08-28T13:59:36.256Z,43.0
2022-08-28T14:00:41.629Z,25.9
2022-08-28T14:01:45.376Z,65.6
2022-08-28T14:02:47.080Z,52.5
2022-08-28T14:04:36.418Z,46.1
2022-08-28T14:05:35.988Z,52.4
2022-08-28T14:07:37.057Z,53.0
2022-08-28T14:08:36.242Z,53.0
2022-08-28T14:09:36.469Z,34.5
2022-08-28T14:10:36.184Z,38.8
2022-08-28T14:12:36.041Z,62.9
2022-08-28T14:13:39.083Z,26.1
2022-08-28T14:14:37.148Z,36.2
2022-08-28T14:15:36.029Z,30.0
2022-08-28T14:16:39.705Z,25.5
2022-08-28T14:17:36.183Z,17.3
2022-08-28T14:18:36.699Z,18.3
2022-08-28T14:19:36.438Z,29.7
2022-08-28T14:20:36.029Z,27.6
2022-08-28T14:21:38.777Z,26.9
2022-08-28T14:22:36.366Z,21.6
2022-08-28T14:23:35.950Z,24.4
2022-08-28T14:24:36.021Z,20.3
2022-08-28T14:25:39.185Z,24.0
2022-08-28T14:26:36.135Z,23.1
2022-08-28T14:27:36.319Z,22.0
2022-08-28T14:28:35.970Z,22.3
2022-08-28T14:29:37.430Z,19.1
2022-08-28T14:30:35.949Z,19.2
2022-08-28T14:31:37.167Z,20.6
2022-08-28T14:32:37.650Z,20.5
2022-08-28T14:36:36.916Z,28.2
2022-08-28T14:37:36.058Z,29.1
2022-08-28T14:38:36.124Z,40.8
2022-08-28T14:39:35.985Z,35.3
2022-08-28T14:40:38.497Z,47.5
2022-08-28T14:41:36.856Z,32.5
2022-08-28T14:42:36.057Z,36.9
2022-08-28T14:44:36.115Z,40.6
2022-08-28T14:45:44.918Z,26.0
2022-08-28T14:46:37.984Z,26.0
2022-08-28T14:48:36.086Z,32.7
2022-08-28T14:49:36.130Z,42.8
2022-08-28T14:50:44.277Z,33.1
2022-08-28T14:51:38.514Z,33.1
2022-08-28T14:52:36.083Z,34.9
2022-08-28T14:53:35.983Z,26.7
2022-08-28T14:54:36.050Z,29.5
2022-08-28T14:55:42.665Z,28.3
2022-08-28T14:56:36.651Z,24.7
2022-08-28T14:57:37.257Z,41.2
2022-08-28T14:58:37.491Z,33.8
2022-08-28T14:59:36.410Z,34.3
2022-08-28T15:00:43.975Z,40.3
2022-08-28T15:01:40.770Z,47.6
2022-08-28T15:02:35.958Z,41.0
2022-08-28T15:03:36.327Z,31.5
2022-08-28T15:04:38.171Z,33.0
2022-08-28T15:05:36.139Z,45.1
2022-08-28T15:06:36.890Z,34.0
2022-08-28T15:07:35.943Z,33.8
2022-08-28T15:10:38.470Z,30.6
2022-08-28T15:11:36.105Z,57.3
2022-08-28T15:12:36.442Z,41.4
2022-08-28T15:13:36.153Z,43.7
2022-08-28T15:14:36.347Z,60.4
2022-08-28T15:15:36.478Z,46.6
2022-08-28T15:17:35.954Z,36.1
2022-08-28T15:18:36.327Z,51.1
2022-08-28T15:19:36.077Z,65.4
2022-08-28T15:20:40.534Z,69.6
2022-08-28T15:21:39.336Z,41.4
2022-08-28T15:22:36.539Z,57.2
2022-08-28T15:23:35.928Z,45.2
2022-08-28T15:24:36.472Z,43.7
2022-08-28T15:25:36.152Z,59.8
2022-08-28T15:26:36.905Z,38.4
2022-08-28T15:27:36.306Z,41.7
2022-08-28T15:29:35.993Z,49.7
2022-08-28T15:31:39.296Z,38.2
2022-08-28T15:32:35.943Z,29.8
2022-08-28T15:33:36.218Z,46.3
2022-08-28T15:34:35.916Z,56.5
2022-08-28T15:35:37.265Z,46.8
2022-08-28T15:36:36.771Z,45.5
2022-08-28T15:37:41.943Z,33.9
2022-08-28T15:38:45.403Z,32.9
2022-08-28T15:39:45.303Z,23.8
2022-08-28T15:40:45.604Z,36.8
2022-08-28T15:41:38.083Z,26.7
2022-08-28T15:42:35.937Z,46.5
2022-08-28T15:44:24.302Z,20.1
2022-08-28T15:45:26.793Z,17.1
2022-08-28T15:46:24.479Z,25.5
2022-08-28T15:47:23.556Z,18.1
2022-08-28T15:48:23.612Z,18.1
2022-08-28T15:50:23.764Z,11.8
2022-08-28T15:51:25.892Z,9.4